Time;durP1;ratioP1;P1;durP2;ratioP2;P2;SDS_P1;SDS_P2;PMS_P1;PMS_P2;Temp;Humidity;BMP_temperature;BMP_pressure;BME280_temperature;BME280_humidity;BME280_pressure;Samples;Min_cycle;Max_cycle;Signal;HPM_P1;HPM_P2
2022/10/10 00:01:22;;;;;;;6.30;4.50;;;7.70;99.90;;;;;;4976026;28;20042;-69
2022/10/10 00:03:48;;;;;;;7.78;4.38;;;7.70;99.90;;;;;;5007934;28;20037;-69
2022/10/10 00:06:15;;;;;;;7.57;4.80;;;7.70;99.90;;;;;;4999652;28;20040;-69
2022/10/10 00:08:41;;;;;;;9.52;4.97;;;7.70;99.90;;;;;;5002747;28;20103;-69
2022/10/10 00:11:07;;;;;;;6.65;4.53;;;7.70;99.90;;;;;;5005238;28;20065;-69
2022/10/10 00:13:33;;;;;;;7.10;4.38;;;7.70;99.90;;;;;;5000455;28;20115;-69
2022/10/10 00:15:59;;;;;;;5.85;4.63;;;7.70;99.90;;;;;;5005698;28;20121;-69
2022/10/10 00:18:25;;;;;;;7.82;4.50;;;7.70;99.90;;;;;;4989762;28;20117;-69
2022/10/10 00:20:51;;;;;;;9.80;5.35;;;7.70;99.90;;;;;;4984181;28;20111;-69
2022/10/10 00:23:18;;;;;;;7.95;4.53;;;7.60;99.90;;;;;;5005957;28;20048;-69
2022/10/10 00:25:44;;;;;;;9.45;5.05;;;7.60;99.90;;;;;;4987500;28;20041;-69
2022/10/10 00:28:11;;;;;;;10.35;4.57;;;7.50;99.90;;;;;;4996344;28;20034;-69
2022/10/10 00:30:37;;;;;;;5.88;4.50;;;7.50;99.90;;;;;;5004653;28;20057;-68
2022/10/10 00:33:03;;;;;;;7.15;4.65;;;7.40;99.90;;;;;;5004829;28;20215;-69
2022/10/10 00:35:29;;;;;;;7.38;4.63;;;7.40;99.90;;;;;;5003289;28;20049;-69
2022/10/10 00:37:54;;;;;;;7.63;4.70;;;7.40;99.90;;;;;;5007892;28;20045;-69
2022/10/10 00:40:21;;;;;;;6.82;4.10;;;7.40;99.90;;;;;;5021960;28;20090;-69
2022/10/10 00:42:47;;;;;;;6.47;4.30;;;7.40;99.90;;;;;;5005683;28;20795;-69
2022/10/10 00:45:41;;;;;;;10.15;4.22;;;7.30;99.90;;;;;;4988489;28;20116;-68
2022/10/10 00:48:19;;;;;;;6.85;4.63;;;7.30;99.90;;;;;;5006426;28;20130;-69
2022/10/10 00:50:54;;;;;;;8.57;4.50;;;7.30;99.90;;;;;;5008281;28;20033;-69
2022/10/10 00:53:24;;;;;;;6.97;4.57;;;7.30;99.90;;;;;;5003528;28;20038;-69
2022/10/10 00:55:51;;;;;;;4.90;4.13;;;7.30;99.90;;;;;;5004734;28;20564;-69
2022/10/10 00:58:19;;;;;;;7.40;4.25;;;7.30;99.90;;;;;;5004843;28;20041;-69
2022/10/10 01:00:44;;;;;;;9.93;4.32;;;7.20;99.90;;;;;;4987639;28;20394;-69
2022/10/10 01:03:10;;;;;;;5.03;4.28;;;7.20;99.90;;;;;;4993054;28;20038;-69
2022/10/10 01:05:37;;;;;;;4.50;4.10;;;7.20;99.90;;;;;;5007700;28;20069;-69
2022/10/10 01:08:04;;;;;;;7.90;4.15;;;7.10;99.90;;;;;;5005068;28;20076;-69
2022/10/10 01:10:38;;;;;;;9.63;4.40;;;7.10;99.90;;;;;;5007723;28;20037;-69
2022/10/10 01:13:58;;;;;;;5.70;4.25;;;7.10;99.90;;;;;;5003501;28;20095;-69
2022/10/10 01:16:30;;;;;;;5.28;4.53;;;7.00;99.90;;;;;;4914840;29;20060;-68
2022/10/10 01:19:18;;;;;;;7.32;4.57;;;7.00;99.90;;;;;;4917811;29;20143;-69
2022/10/10 01:22:05;;;;;;;7.07;4.88;;;6.90;99.90;;;;;;4974023;28;20132;-69
2022/10/10 01:24:49;;;;;;;6.22;4.50;;;6.90;99.90;;;;;;5006228;28;20033;-69
2022/10/10 01:27:30;;;;;;;5.95;5.00;;;6.90;99.90;;;;;;5023426;28;20036;-69
2022/10/10 01:30:02;;;;;;;7.28;4.95;;;6.90;99.90;;;;;;5000312;28;20121;-69
2022/10/10 01:32:37;;;;;;;8.02;4.90;;;6.90;99.90;;;;;;4985756;28;20154;-69
2022/10/10 01:35:18;;;;;;;8.35;4.78;;;6.90;99.90;;;;;;4988763;28;20050;-69
2022/10/10 01:37:58;;;;;;;8.38;5.22;;;6.90;99.90;;;;;;5003938;28;20073;-69
2022/10/10 01:40:49;;;;;;;6.68;5.45;;;6.90;99.90;;;;;;4989140;28;20375;-69
2022/10/10 01:43:16;;;;;;;12.73;5.18;;;7.00;99.90;;;;;;5023107;28;20050;-69
2022/10/10 01:45:47;;;;;;;7.22;4.95;;;7.00;99.90;;;;;;5006319;28;20127;-69
2022/10/10 01:48:16;;;;;;;7.47;5.35;;;7.00;99.90;;;;;;5004342;28;20494;-69
2022/10/10 01:51:07;;;;;;;8.88;5.03;;;7.00;99.90;;;;;;4974925;28;20041;-69
2022/10/10 01:53:58;;;;;;;6.82;5.28;;;7.00;99.90;;;;;;5004208;28;20055;-69
2022/10/10 01:56:46;;;;;;;7.57;5.30;;;7.00;99.90;;;;;;4990062;28;20042;-69
2022/10/10 01:59:28;;;;;;;7.22;5.70;;;7.00;99.90;;;;;;5004712;28;20041;-69
2022/10/10 02:02:02;;;;;;;10.32;5.25;;;7.00;99.90;;;;;;5006258;28;20052;-68
2022/10/10 02:04:44;;;;;;;8.10;5.53;;;7.00;99.90;;;;;;5023573;28;20573;-69
2022/10/10 02:07:25;;;;;;;7.75;5.05;;;6.90;99.90;;;;;;5004437;28;20057;-69
2022/10/10 02:09:53;;;;;;;7.57;5.43;;;6.90;99.90;;;;;;4990387;28;20038;-69
2022/10/10 02:12:21;;;;;;;10.13;5.90;;;6.90;99.90;;;;;;4990794;28;20052;-69
2022/10/10 02:14:50;;;;;;;5.68;5.10;;;6.90;99.90;;;;;;5010178;28;20060;-69
2022/10/10 02:17:16;;;;;;;5.75;5.10;;;6.90;99.90;;;;;;5009364;28;20038;-69
2022/10/10 02:19:53;;;;;;;8.68;5.65;;;6.90;99.90;;;;;;5010680;28;20037;-69
2022/10/10 02:22:22;;;;;;;8.75;5.57;;;6.90;99.90;;;;;;4988830;28;20462;-69
2022/10/10 02:24:49;;;;;;;8.10;5.45;;;6.80;99.90;;;;;;5006796;28;20033;-69
2022/10/10 02:27:28;;;;;;;7.43;5.90;;;6.80;99.90;;;;;;5007133;28;20556;-69
2022/10/10 02:29:57;;;;;;;9.65;6.00;;;6.80;99.90;;;;;;5026499;28;20498;-69
2022/10/10 02:32:37;;;;;;;10.02;5.45;;;6.80;99.90;;;;;;5026428;28;20518;-69
2022/10/10 02:35:08;;;;;;;8.25;5.63;;;6.80;99.90;;;;;;5008044;28;20077;-69
2022/10/10 02:37:38;;;;;;;9.73;6.38;;;6.80;99.90;;;;;;5007809;28;20834;-69
2022/10/10 02:40:06;;;;;;;9.02;6.13;;;6.80;99.90;;;;;;4989239;28;20510;-69
2022/10/10 02:42:34;;;;;;;6.78;5.55;;;6.70;99.90;;;;;;4982442;28;20335;-70
2022/10/10 02:45:00;;;;;;;7.45;5.93;;;6.70;99.90;;;;;;5007016;28;20486;-69
2022/10/10 02:47:28;;;;;;;9.00;5.50;;;6.70;99.90;;;;;;5006952;28;20029;-69
2022/10/10 02:49:57;;;;;;;7.93;5.57;;;6.70;99.90;;;;;;4974212;28;20462;-69
2022/10/10 02:52:23;;;;;;;6.18;5.03;;;6.70;99.90;;;;;;4990913;28;20037;-69
2022/10/10 02:54:49;;;;;;;7.82;5.47;;;6.60;99.90;;;;;;4991755;28;20541;-69
2022/10/10 02:57:14;;;;;;;10.05;5.70;;;6.70;99.90;;;;;;4991867;28;20038;-69
2022/10/10 02:59:40;;;;;;;8.32;5.78;;;6.60;99.90;;;;;;4973848;28;20048;-68
2022/10/10 03:02:07;;;;;;;7.00;5.38;;;6.60;99.90;;;;;;5025924;28;20041;-68
2022/10/10 03:04:34;;;;;;;9.85;5.75;;;6.60;99.90;;;;;;5004733;28;20116;-69
2022/10/10 03:07:01;;;;;;;7.65;5.38;;;6.60;99.90;;;;;;4992209;28;20041;-69
2022/10/10 03:09:29;;;;;;;6.95;5.38;;;6.60;99.90;;;;;;4990955;28;20088;-69
2022/10/10 03:11:55;;;;;;;6.15;5.53;;;6.60;99.90;;;;;;5009516;28;20116;-68
2022/10/10 03:14:20;;;;;;;9.15;5.18;;;6.60;99.90;;;;;;5007643;28;20164;-69
2022/10/10 03:16:46;;;;;;;7.32;5.60;;;6.60;99.90;;;;;;4977578;28;20041;-70
2022/10/10 03:19:12;;;;;;;8.23;5.75;;;6.60;99.90;;;;;;4989890;28;20138;-68
2022/10/10 03:21:38;;;;;;;8.18;5.15;;;6.60;99.90;;;;;;4987028;28;20041;-69
2022/10/10 03:24:04;;;;;;;8.10;5.47;;;6.60;99.90;;;;;;5026223;28;20297;-69
2022/10/10 03:26:31;;;;;;;6.55;5.20;;;6.60;99.90;;;;;;5009370;28;20184;-69
2022/10/10 03:28:56;;;;;;;8.68;6.07;;;6.60;99.90;;;;;;5006330;28;20030;-69
2022/10/10 03:31:22;;;;;;;9.20;5.88;;;6.60;99.90;;;;;;4995771;28;20514;-69
2022/10/10 03:33:48;;;;;;;8.80;5.65;;;6.60;99.90;;;;;;5008704;28;20170;-69
2022/10/10 03:36:14;;;;;;;10.10;6.28;;;6.60;99.90;;;;;;4990016;28;20064;-69
2022/10/10 03:38:40;;;;;;;9.45;6.25;;;6.60;99.90;;;;;;4987716;28;20053;-69
2022/10/10 03:41:06;;;;;;;13.52;7.00;;;6.60;99.90;;;;;;4989942;28;20071;-69
2022/10/10 03:43:31;;;;;;;13.63;7.13;;;6.50;99.90;;;;;;5008410;28;20041;-69
2022/10/10 03:45:57;;;;;;;12.98;7.90;;;6.50;99.90;;;;;;5003545;28;20645;-69
2022/10/10 03:48:24;;;;;;;14.30;8.23;;;6.50;99.90;;;;;;5002636;28;20042;-69
2022/10/10 03:50:50;;;;;;;14.02;9.25;;;6.50;99.90;;;;;;5004513;28;20096;-69
2022/10/10 03:53:16;;;;;;;19.50;8.93;;;6.40;99.90;;;;;;4986963;28;20030;-69
2022/10/10 03:55:42;;;;;;;18.23;8.90;;;6.40;99.90;;;;;;4989792;28;20115;-69
2022/10/10 03:58:08;;;;;;;17.17;9.80;;;6.40;99.90;;;;;;5023495;28;20511;-69
2022/10/10 04:00:35;;;;;;;14.88;8.50;;;6.40;99.90;;;;;;4987850;28;20033;-69
2022/10/10 04:03:05;;;;;;;16.40;8.60;;;6.40;99.90;;;;;;4973528;28;20042;-69
2022/10/10 04:05:35;;;;;;;11.75;8.23;;;6.40;99.90;;;;;;5000607;28;20034;-69
2022/10/10 04:08:02;;;;;;;16.02;8.65;;;6.40;99.90;;;;;;5004421;28;20042;-69
2022/10/10 04:10:28;;;;;;;13.10;7.53;;;6.40;99.90;;;;;;5006791;28;20033;-69
2022/10/10 04:12:54;;;;;;;9.38;6.63;;;6.30;99.90;;;;;;5024784;28;20037;-69
2022/10/10 04:15:20;;;;;;;10.25;7.22;;;6.30;99.90;;;;;;4991485;28;20052;-69
2022/10/10 04:17:45;;;;;;;10.23;6.85;;;6.30;99.90;;;;;;5025292;28;20402;-68
2022/10/10 04:20:11;;;;;;;11.32;6.65;;;6.30;99.90;;;;;;5008246;28;20461;-69
2022/10/10 04:22:37;;;;;;;8.25;6.32;;;6.30;99.90;;;;;;4975593;28;20037;-69
2022/10/10 04:25:03;;;;;;;11.43;7.00;;;6.30;99.90;;;;;;5008195;28;20041;-69
2022/10/10 04:27:29;;;;;;;10.30;6.10;;;6.30;99.90;;;;;;4990479;28;20154;-69
2022/10/10 04:29:55;;;;;;;9.95;6.30;;;6.20;99.90;;;;;;4998935;28;20025;-69
2022/10/10 04:32:20;;;;;;;9.88;6.53;;;6.30;99.90;;;;;;4988890;28;20398;-68
2022/10/10 04:34:46;;;;;;;8.95;6.25;;;6.30;99.90;;;;;;4987422;28;20029;-69
2022/10/10 04:37:12;;;;;;;11.88;6.93;;;6.20;99.90;;;;;;4989744;28;20053;-69
2022/10/10 04:39:38;;;;;;;9.73;7.20;;;6.20;99.90;;;;;;5007919;28;20041;-69
2022/10/10 04:42:03;;;;;;;8.93;6.25;;;6.30;99.90;;;;;;4974775;28;20033;-68
2022/10/10 04:44:29;;;;;;;13.93;7.03;;;6.20;99.90;;;;;;4967381;28;20038;-69
2022/10/10 04:46:57;;;;;;;11.02;6.63;;;6.20;99.90;;;;;;4990610;28;20491;-69
2022/10/10 04:49:23;;;;;;;9.65;6.47;;;6.20;99.90;;;;;;4988396;28;20457;-68
2022/10/10 04:51:49;;;;;;;10.52;6.65;;;6.20;99.90;;;;;;4989080;28;20049;-69
2022/10/10 04:54:30;;;;;;;10.48;6.50;;;6.20;99.90;;;;;;4992040;28;20049;-69
2022/10/10 04:56:56;;;;;;;8.95;6.55;;;6.20;99.90;;;;;;4985959;28;20064;-68
2022/10/10 04:59:21;;;;;;;10.07;7.00;;;6.10;99.90;;;;;;4986456;28;20330;-69
2022/10/10 05:01:47;;;;;;;8.60;6.68;;;6.10;99.90;;;;;;4987688;28;20088;-69
2022/10/10 05:04:13;;;;;;;8.77;6.25;;;6.10;99.90;;;;;;4989383;28;20041;-69
2022/10/10 05:06:39;;;;;;;11.00;6.43;;;6.10;99.90;;;;;;4989546;28;20060;-69
2022/10/10 05:09:05;;;;;;;11.88;6.22;;;6.10;99.90;;;;;;4989856;28;20076;-69
2022/10/10 05:11:30;;;;;;;12.05;6.65;;;6.10;99.90;;;;;;4981960;28;20108;-69
2022/10/10 05:13:56;;;;;;;8.40;6.90;;;6.10;99.90;;;;;;4990648;28;20041;-69
2022/10/10 05:16:22;;;;;;;9.52;6.45;;;6.10;99.90;;;;;;4988250;28;20208;-69
2022/10/10 05:18:47;;;;;;;10.45;6.50;;;6.10;99.90;;;;;;5006781;28;20124;-69
2022/10/10 05:21:14;;;;;;;14.02;6.80;;;6.10;99.90;;;;;;4988498;28;20042;-69
2022/10/10 05:23:40;;;;;;;9.40;6.45;;;6.10;99.90;;;;;;4972309;28;20037;-69
2022/10/10 05:26:07;;;;;;;9.45;6.35;;;6.10;99.90;;;;;;4984304;28;20052;-69
2022/10/10 05:28:35;;;;;;;9.52;6.85;;;6.00;99.90;;;;;;4987371;28;20053;-69
2022/10/10 05:31:01;;;;;;;8.57;6.68;;;6.00;99.90;;;;;;4971570;28;20033;-69
2022/10/10 05:33:27;;;;;;;8.70;5.95;;;6.00;99.90;;;;;;4993423;28;20491;-69
2022/10/10 05:36:04;;;;;;;9.68;6.50;;;6.00;99.90;;;;;;4986578;28;20058;-69
2022/10/10 05:38:30;;;;;;;9.10;6.65;;;6.00;99.90;;;;;;5004488;28;20072;-69
2022/10/10 05:40:56;;;;;;;9.00;6.22;;;6.00;99.90;;;;;;5024986;28;20072;-69
2022/10/10 05:43:22;;;;;;;8.60;6.50;;;6.00;99.90;;;;;;4988417;28;20046;-69
2022/10/10 05:45:49;;;;;;;9.93;7.18;;;6.00;99.90;;;;;;4989682;28;20030;-69
2022/10/10 05:48:15;;;;;;;8.55;6.10;;;6.00;99.90;;;;;;4990250;28;20044;-69
2022/10/10 05:50:51;;;;;;;9.98;6.22;;;6.10;99.90;;;;;;5005082;28;20427;-69
2022/10/10 05:53:17;;;;;;;10.18;6.90;;;6.00;99.90;;;;;;4990360;28;20037;-69
2022/10/10 05:55:43;;;;;;;10.45;6.75;;;6.00;99.90;;;;;;5004886;28;20458;-70
2022/10/10 05:58:12;;;;;;;11.18;6.45;;;6.00;99.90;;;;;;4995021;28;20038;-69
2022/10/10 06:00:39;;;;;;;8.30;6.55;;;6.00;99.90;;;;;;4988928;28;20042;-70
2022/10/10 06:03:05;;;;;;;10.57;6.35;;;6.00;99.90;;;;;;4991499;28;20037;-70
2022/10/10 06:05:30;;;;;;;10.15;6.53;;;6.00;99.90;;;;;;5007177;28;20494;-69
2022/10/10 06:07:56;;;;;;;9.10;6.20;;;6.00;99.90;;;;;;4990342;28;20041;-69
2022/10/10 06:10:22;;;;;;;7.55;6.15;;;6.00;99.90;;;;;;5006507;28;20030;-69
2022/10/10 06:12:48;;;;;;;9.48;7.00;;;6.00;99.90;;;;;;5010840;28;20041;-69
2022/10/10 06:15:18;;;;;;;8.80;6.45;;;6.00;99.90;;;;;;4976537;28;20041;-69
2022/10/10 06:17:45;;;;;;;11.52;6.45;;;6.00;99.90;;;;;;5008620;28;20049;-69
2022/10/10 06:20:10;;;;;;;12.98;6.88;;;6.00;99.90;;;;;;4989244;28;20037;-69
2022/10/10 06:22:36;;;;;;;8.98;6.82;;;6.00;99.90;;;;;;4977097;28;20041;-70
2022/10/10 06:25:02;;;;;;;15.00;6.82;;;6.10;99.90;;;;;;4985699;28;20046;-69
2022/10/10 06:27:28;;;;;;;9.98;7.25;;;6.10;99.90;;;;;;5005181;28;20033;-69
2022/10/10 06:29:53;;;;;;;10.35;6.97;;;6.10;99.90;;;;;;5010061;28;20044;-69
2022/10/10 06:32:19;;;;;;;14.02;7.60;;;6.10;99.90;;;;;;4975727;28;20111;-69
2022/10/10 06:34:45;;;;;;;9.52;7.00;;;6.10;99.90;;;;;;5010729;28;20677;-69
2022/10/10 06:37:11;;;;;;;9.85;6.50;;;6.20;99.90;;;;;;4987876;28;20057;-69
2022/10/10 06:39:37;;;;;;;9.77;6.70;;;6.20;99.90;;;;;;4988371;28;20041;-69
2022/10/10 06:42:03;;;;;;;10.35;7.13;;;6.30;99.90;;;;;;4977711;28;20134;-69
2022/10/10 06:44:29;;;;;;;12.02;6.80;;;6.30;99.90;;;;;;4988637;28;20187;-69
2022/10/10 06:46:55;;;;;;;13.50;7.25;;;6.30;99.90;;;;;;4992176;28;20492;-69
2022/10/10 06:49:21;;;;;;;11.70;7.43;;;6.40;99.90;;;;;;4992229;28;20117;-69
2022/10/10 06:51:47;;;;;;;11.48;7.20;;;6.50;99.90;;;;;;5007722;28;20503;-68
2022/10/10 06:54:12;;;;;;;12.05;6.82;;;6.60;99.90;;;;;;4976033;28;20426;-69
2022/10/10 06:56:38;;;;;;;12.93;7.45;;;6.70;99.90;;;;;;4987037;28;20041;-69
2022/10/10 06:59:04;;;;;;;11.55;7.30;;;6.70;99.90;;;;;;4991698;28;20037;-69
2022/10/10 07:01:30;;;;;;;11.98;7.65;;;6.80;99.90;;;;;;4991027;28;20041;-69
2022/10/10 07:03:56;;;;;;;11.48;7.45;;;6.90;99.90;;;;;;4989384;28;20471;-69
2022/10/10 07:06:24;;;;;;;9.52;6.53;;;7.00;99.90;;;;;;4991141;28;20033;-69
2022/10/10 07:08:49;;;;;;;9.02;7.03;;;7.10;99.90;;;;;;4983809;28;20044;-69
2022/10/10 07:11:15;;;;;;;11.40;7.43;;;7.10;99.90;;;;;;4996687;28;20046;-69
2022/10/10 07:13:41;;;;;;;11.18;7.40;;;7.20;99.90;;;;;;4965966;28;20514;-69
2022/10/10 07:16:08;;;;;;;11.75;7.53;;;7.30;99.90;;;;;;4966889;28;20700;-69
2022/10/10 07:18:35;;;;;;;12.20;8.00;;;7.40;99.90;;;;;;4997461;28;20041;-69
2022/10/10 07:21:02;;;;;;;10.60;7.03;;;7.50;99.90;;;;;;4968215;28;20041;-69
2022/10/10 07:23:30;;;;;;;9.63;6.85;;;7.60;99.90;;;;;;4979810;28;20045;-69
2022/10/10 07:26:01;;;;;;;16.52;7.68;;;7.70;99.90;;;;;;5000756;28;20037;-69
2022/10/10 07:28:28;;;;;;;11.02;7.38;;;7.80;99.90;;;;;;4998048;28;20077;-69
2022/10/10 07:30:59;;;;;;;11.02;7.15;;;7.90;99.90;;;;;;4996614;28;20069;-69
2022/10/10 07:33:25;;;;;;;10.87;6.83;;;8.00;99.90;;;;;;5001003;28;20045;-69
2022/10/10 07:35:53;;;;;;;11.40;7.45;;;8.10;99.90;;;;;;4995275;28;20356;-69
2022/10/10 07:38:19;;;;;;;9.10;7.53;;;8.20;99.90;;;;;;4996075;28;20512;-69
2022/10/10 07:40:45;;;;;;;12.73;7.75;;;8.30;99.90;;;;;;4998949;28;20684;-69
2022/10/10 07:43:11;;;;;;;10.70;6.65;;;8.40;99.90;;;;;;5003340;28;20100;-69
2022/10/10 07:45:36;;;;;;;11.05;7.25;;;8.50;99.90;;;;;;4972049;28;20034;-69
2022/10/10 07:48:05;;;;;;;11.45;7.10;;;8.60;99.90;;;;;;5005901;28;20117;-69
2022/10/10 07:50:31;;;;;;;9.73;7.22;;;8.70;99.90;;;;;;4971058;28;20162;-69
2022/10/10 07:52:57;;;;;;;11.90;6.70;;;8.80;99.90;;;;;;4987200;28;20181;-69
2022/10/10 07:55:23;;;;;;;10.40;7.00;;;8.90;99.90;;;;;;5004518;28;20038;-69
2022/10/10 07:57:50;;;;;;;14.60;7.55;;;9.00;99.90;;;;;;5004504;28;20046;-69
2022/10/10 08:00:15;;;;;;;11.05;6.88;;;9.10;99.90;;;;;;4988501;28;20116;-69
2022/10/10 08:02:41;;;;;;;12.63;7.85;;;9.20;99.90;;;;;;4988470;28;20159;-69
2022/10/10 08:05:07;;;;;;;9.52;6.32;;;9.20;99.90;;;;;;4985496;28;20034;-69
2022/10/10 08:07:33;;;;;;;10.65;6.97;;;9.30;99.90;;;;;;4968440;28;20101;-69
2022/10/10 08:10:01;;;;;;;10.88;6.72;;;9.30;99.90;;;;;;4980883;28;20116;-69
2022/10/10 08:12:27;;;;;;;11.93;7.45;;;9.40;99.90;;;;;;5005174;28;20056;-69
2022/10/10 08:14:53;;;;;;;12.13;7.15;;;9.50;99.90;;;;;;5000514;28;20057;-69
2022/10/10 08:17:19;;;;;;;10.70;7.10;;;9.60;99.90;;;;;;4984839;28;20132;-69
2022/10/10 08:19:44;;;;;;;8.73;6.65;;;9.60;99.90;;;;;;5003800;28;20050;-69
2022/10/10 08:22:12;;;;;;;12.52;7.10;;;9.80;99.90;;;;;;4984223;28;20375;-69
2022/10/10 08:24:38;;;;;;;16.33;6.82;;;9.80;99.90;;;;;;5003246;28;20092;-69
2022/10/10 08:27:04;;;;;;;8.32;7.03;;;9.90;99.90;;;;;;4988702;28;20112;-69
2022/10/10 08:29:32;;;;;;;11.73;6.78;;;10.10;99.90;;;;;;5002488;28;20128;-69
2022/10/10 08:31:57;;;;;;;10.13;6.75;;;10.20;99.90;;;;;;5001533;28;20185;-69
2022/10/10 08:34:23;;;;;;;13.40;7.35;;;10.30;99.90;;;;;;4983367;28;20132;-69
2022/10/10 08:36:49;;;;;;;14.63;6.72;;;10.40;99.90;;;;;;5004633;28;20305;-69
2022/10/10 08:39:16;;;;;;;11.18;7.35;;;10.60;99.90;;;;;;4986018;28;20081;-69
2022/10/10 08:41:48;;;;;;;11.00;6.63;;;10.80;99.90;;;;;;4964083;28;20108;-69
2022/10/10 08:44:46;;;;;;;10.52;7.50;;;11.00;99.90;;;;;;5003813;28;20089;-69
2022/10/10 08:47:20;;;;;;;14.57;7.10;;;11.10;99.90;;;;;;4981575;28;20056;-69
2022/10/10 08:50:10;;;;;;;11.68;6.75;;;11.20;99.90;;;;;;5002997;28;20539;-69
2022/10/10 08:52:41;;;;;;;12.13;6.88;;;11.30;99.90;;;;;;4999917;28;20045;-69
2022/10/10 08:55:20;;;;;;;10.90;7.03;;;11.30;99.90;;;;;;5002883;28;20458;-69
2022/10/10 08:58:04;;;;;;;9.60;6.88;;;11.40;99.90;;;;;;5001466;28;20065;-69
2022/10/10 09:00:37;;;;;;;7.68;6.13;;;11.40;99.90;;;;;;4986706;28;20043;-69
2022/10/10 09:03:05;;;;;;;;;;;11.40;99.90;;;;;;4983738;28;21986;-69
2022/10/10 09:05:40;;;;;;;11.98;7.20;;;11.40;99.90;;;;;;5000454;28;19917;-69
2022/10/10 09:08:24;;;;;;;15.85;7.10;;;11.40;99.90;;;;;;5001708;28;20038;-69
2022/10/10 09:11:17;;;;;;;14.32;6.82;;;11.50;99.90;;;;;;4982352;28;20030;-69
2022/10/10 09:14:11;;;;;;;12.25;7.78;;;11.70;99.90;;;;;;5002716;28;20042;-69
2022/10/10 09:17:18;;;;;;;10.93;7.30;;;11.80;99.90;;;;;;5000892;28;20092;-70
2022/10/10 09:19:53;;;;;;;14.02;7.63;;;11.80;99.90;;;;;;4997698;28;20034;-69
2022/10/10 09:22:24;;;;;;;10.63;7.10;;;11.80;99.90;;;;;;5002379;28;20118;-69
2022/10/10 09:25:00;;;;;;;13.32;7.65;;;11.80;99.90;;;;;;5000625;28;20034;-70
2022/10/10 09:27:32;;;;;;;13.55;6.97;;;11.90;99.90;;;;;;5001784;28;20042;-69
2022/10/10 09:30:01;;;;;;;12.30;6.88;;;12.00;99.90;;;;;;5002576;28;20034;-69
2022/10/10 09:32:36;;;;;;;9.77;6.93;;;12.10;99.90;;;;;;4983760;28;20065;-69
2022/10/10 09:35:12;;;;;;;;;;;12.10;99.90;;;;;;5000577;28;20049;-69
2022/10/10 09:37:40;;;;;;;11.48;7.63;;;12.10;99.90;;;;;;5002715;28;19921;-69
2022/10/10 09:40:16;;;;;;;12.45;7.63;;;12.20;99.90;;;;;;4976676;28;20484;-69
2022/10/10 09:42:44;;;;;;;13.02;7.15;;;12.20;99.90;;;;;;5003039;28;20046;-69
2022/10/10 09:45:27;;;;;;;14.73;7.38;;;12.30;99.90;;;;;;4984709;28;20046;-69
2022/10/10 09:47:54;;;;;;;11.10;7.15;;;12.50;99.90;;;;;;4999834;28;20457;-69
2022/10/10 09:50:21;;;;;;;13.27;7.53;;;12.70;99.90;;;;;;4981136;28;20050;-69
2022/10/10 09:52:47;;;;;;;9.55;7.53;;;12.80;99.90;;;;;;5003378;28;20561;-69
2022/10/10 09:55:22;;;;;;;11.10;7.38;;;12.80;99.90;;;;;;4997843;28;20621;-69
2022/10/10 09:57:50;;;;;;;15.35;8.10;;;12.90;99.90;;;;;;5005959;28;20407;-69
2022/10/10 10:00:19;;;;;;;14.00;7.38;;;13.00;99.90;;;;;;5008008;28;20514;-69
2022/10/10 10:02:49;;;;;;;11.88;7.88;;;13.10;99.90;;;;;;5000225;28;20486;-69
2022/10/10 10:05:25;;;;;;;10.63;7.20;;;13.30;99.90;;;;;;5003777;28;20042;-69
2022/10/10 10:07:51;;;;;;;11.73;6.85;;;13.50;99.90;;;;;;5007601;28;20076;-69
2022/10/10 10:10:26;;;;;;;11.23;7.10;;;13.80;99.90;;;;;;5007869;28;20368;-69
2022/10/10 10:12:53;;;;;;;11.32;7.70;;;14.20;99.90;;;;;;4991342;28;20083;-69
2022/10/10 10:15:29;;;;;;;11.07;7.50;;;14.50;99.90;;;;;;4991592;28;20399;-69
2022/10/10 10:18:19;;;;;;;11.05;7.57;;;14.60;99.90;;;;;;5007959;28;20045;-69
2022/10/10 10:20:51;;;;;;;12.65;7.45;;;14.50;99.90;;;;;;5007325;28;20042;-69
2022/10/10 10:23:34;;;;;;;12.50;8.30;;;14.50;99.90;;;;;;4991039;28;20038;-69
2022/10/10 10:26:05;;;;;;;12.50;7.43;;;14.60;99.90;;;;;;5007685;28;20104;-69
2022/10/10 10:28:38;;;;;;;9.88;7.50;;;14.60;99.90;;;;;;5007489;28;20034;-69
2022/10/10 10:31:05;;;;;;;10.05;7.18;;;14.50;99.90;;;;;;5009893;28;20045;-69
2022/10/10 10:33:41;;;;;;;10.65;7.30;;;14.60;99.90;;;;;;4994809;28;20525;-68
2022/10/10 10:36:39;;;;;;;10.93;7.70;;;14.70;99.90;;;;;;5019289;28;20073;-69
2022/10/10 10:39:16;;;;;;;12.30;7.22;;;14.80;99.90;;;;;;4952815;28;20049;-69
2022/10/10 10:41:55;;;;;;;11.73;7.03;;;14.90;99.90;;;;;;5013899;28;20045;-69
2022/10/10 10:44:36;;;;;;;10.23;7.38;;;14.90;99.90;;;;;;4993197;28;20121;-69
2022/10/10 10:47:22;;;;;;;12.50;7.75;;;14.90;99.90;;;;;;5014084;28;20517;-69
2022/10/10 10:49:58;;;;;;;10.98;7.20;;;14.90;99.90;;;;;;5013445;28;20077;-69
2022/10/10 10:52:45;;;;;;;10.60;6.47;;;14.90;99.90;;;;;;5013764;28;20038;-69
2022/10/10 10:55:28;;;;;;;15.88;7.10;;;14.80;99.90;;;;;;5013927;28;20060;-69
2022/10/10 10:58:13;;;;;;;11.95;7.47;;;14.70;99.90;;;;;;5013994;28;20167;-69
2022/10/10 11:00:53;;;;;;;12.48;7.95;;;14.70;99.90;;;;;;5010667;28;20041;-69
2022/10/10 11:03:25;;;;;;;9.68;7.15;;;14.80;99.90;;;;;;4994778;28;20045;-69
2022/10/10 11:06:12;;;;;;;11.00;7.80;;;14.90;99.90;;;;;;5009690;28;20041;-69
2022/10/10 11:09:02;;;;;;;13.55;7.13;;;14.90;99.90;;;;;;5013744;28;20060;-69
2022/10/10 11:11:50;;;;;;;13.23;7.47;;;14.90;99.90;;;;;;5013671;28;20065;-69
2022/10/10 11:14:37;;;;;;;13.23;7.82;;;14.90;99.90;;;;;;5011545;28;20039;-69
2022/10/10 11:17:24;;;;;;;11.55;8.52;;;15.00;99.90;;;;;;5013561;28;20037;-69
2022/10/10 11:19:58;;;;;;;12.25;7.55;;;15.00;99.90;;;;;;4992579;28;20519;-69
2022/10/10 11:22:40;;;;;;;13.15;8.40;;;14.90;99.90;;;;;;4996924;28;20048;-69
2022/10/10 11:25:06;;;;;;;13.88;8.18;;;14.90;99.90;;;;;;5010892;28;20046;-69
2022/10/10 11:27:45;;;;;;;12.95;7.65;;;14.90;99.90;;;;;;5013434;28;20037;-69
2022/10/10 11:30:16;;;;;;;12.57;7.22;;;14.90;99.90;;;;;;5007073;28;20041;-69
2022/10/10 11:32:46;;;;;;;13.65;7.07;;;14.90;99.90;;;;;;5012863;28;20046;-69
2022/10/10 11:35:33;;;;;;;12.35;7.28;;;14.90;99.90;;;;;;4997150;28;20403;-70
2022/10/10 11:38:24;;;;;;;11.38;7.25;;;14.90;99.90;;;;;;5013319;28;20049;-69
2022/10/10 11:41:19;;;;;;;10.85;7.13;;;14.90;99.90;;;;;;4977022;28;20453;-69
2022/10/10 11:44:13;;;;;;;14.85;8.02;;;14.90;99.90;;;;;;5006803;28;20064;-69
2022/10/10 11:46:59;;;;;;;12.20;7.72;;;14.90;99.90;;;;;;5020961;28;20088;-68
2022/10/10 11:49:35;;;;;;;9.90;6.90;;;14.90;99.90;;;;;;4996412;28;20073;-69
2022/10/10 11:52:30;;;;;;;11.85;6.85;;;14.90;99.90;;;;;;5012788;28;20200;-69
2022/10/10 11:55:09;;;;;;;10.48;6.97;;;14.80;99.90;;;;;;4951930;28;20056;-69
2022/10/10 11:57:46;;;;;;;9.90;6.25;;;14.80;99.90;;;;;;4995471;28;20566;-69
2022/10/10 12:00:17;;;;;;;10.07;6.65;;;14.80;99.90;;;;;;4996515;28;20037;-69
2022/10/10 12:02:45;;;;;;;10.93;6.85;;;14.80;99.90;;;;;;5029885;28;20045;-68
2022/10/10 12:05:26;;;;;;;10.00;7.10;;;14.80;99.90;;;;;;4994832;28;20037;-68
2022/10/10 12:08:19;;;;;;;10.07;7.32;;;14.80;99.90;;;;;;5012719;28;20033;-69
2022/10/10 12:10:57;;;;;;;;;;;14.70;99.90;;;;;;5006537;28;20095;-69
2022/10/10 12:13:53;;;;;;;12.90;7.03;;;14.70;99.90;;;;;;5000859;28;20405;-69
2022/10/10 12:16:25;;;;;;;12.68;8.05;;;14.60;99.90;;;;;;4985779;28;20049;-70
2022/10/10 12:18:54;;;;;;;14.03;7.27;;;14.60;99.90;;;;;;5012421;28;20501;-70
2022/10/10 12:21:25;;;;;;;10.50;6.90;;;14.50;99.90;;;;;;5012097;28;20403;-69
2022/10/10 12:24:12;;;;;;;9.45;7.13;;;14.50;99.90;;;;;;4995962;28;20620;-70
2022/10/10 12:26:53;;;;;;;13.27;7.47;;;14.40;99.90;;;;;;5012386;28;20041;-70
2022/10/10 12:29:54;;;;;;;9.35;6.68;;;14.40;99.90;;;;;;4995846;28;20434;-70
2022/10/10 12:32:35;;;;;;;9.82;6.40;;;14.40;99.90;;;;;;4981907;28;20486;-70
2022/10/10 12:35:01;;;;;;;8.13;6.22;;;14.40;99.90;;;;;;4992709;28;20250;-70
2022/10/10 12:37:32;;;;;;;9.45;6.15;;;14.40;99.90;;;;;;4960373;28;20495;-70
2022/10/10 12:40:04;;;;;;;9.65;6.45;;;14.40;99.90;;;;;;4992220;28;20102;-70
2022/10/10 12:43:00;;;;;;;8.70;6.53;;;14.40;99.90;;;;;;5029399;28;20087;-69
2022/10/10 12:45:29;;;;;;;9.52;6.28;;;14.40;99.90;;;;;;4995815;28;20038;-70
2022/10/10 12:47:55;;;;;;;12.02;5.70;;;14.50;99.90;;;;;;5012025;28;20055;-70
2022/10/10 12:50:37;;;;;;;11.30;6.55;;;14.50;99.90;;;;;;4990909;28;20522;-71
2022/10/10 12:53:17;;;;;;;15.30;6.72;;;14.60;99.90;;;;;;5011695;28;20079;-71
2022/10/10 12:55:46;;;;;;;15.52;6.97;;;14.60;99.90;;;;;;5012004;28;20057;-70
2022/10/10 12:58:22;;;;;;;10.65;6.53;;;14.60;99.90;;;;;;4995453;28;20053;-70
2022/10/10 13:00:49;;;;;;;12.95;6.18;;;14.60;99.90;;;;;;5029633;28;20037;-70
2022/10/10 13:03:17;;;;;;;11.43;6.65;;;14.60;99.90;;;;;;5011167;28;20326;-70
2022/10/10 13:05:46;;;;;;;12.35;6.35;;;14.60;99.90;;;;;;4985815;28;20566;-70
2022/10/10 13:08:36;;;;;;;9.82;6.75;;;14.60;99.90;;;;;;5005096;28;20052;-70
2022/10/10 13:11:10;;;;;;;14.00;7.20;;;14.60;99.90;;;;;;5006825;28;20406;-70